Time;durP1;ratioP1;P1;durP2;ratioP2;P2;SDS_P1;SDS_P2;PMS_P1;PMS_P2;Temp;Humidity;BMP_temperature;BMP_pressure;BME280_temperature;BME280_humidity;BME280_pressure;Samples;Min_cycle;Max_cycle;Signal;HPM_P1;HPM_P2
2022/07/10 00:00:14;;;;;;;12.82;11.68;;;;;;;;;;5033704;28;20033;-79
2022/07/10 00:02:41;;;;;;;12.18;11.20;;;;;;;;;;5033773;28;20481;-80
2022/07/10 00:05:08;;;;;;;12.50;11.50;;;;;;;;;;5033579;28;20029;-79
2022/07/10 00:07:34;;;;;;;11.90;10.90;;;;;;;;;;5033807;28;20473;-79
2022/07/10 00:10:00;;;;;;;12.43;11.23;;;;;;;;;;5033577;28;20572;-81
2022/07/10 00:12:26;;;;;;;12.68;11.50;;;;;;;;;;5033504;28;20368;-81
2022/07/10 00:14:52;;;;;;;12.70;11.70;;;;;;;;;;5033475;28;20044;-83
2022/07/10 00:17:18;;;;;;;13.25;12.05;;;;;;;;;;5033386;28;20381;-79
2022/07/10 00:19:44;;;;;;;13.75;12.40;;;;;;;;;;5033157;28;20053;-80
2022/07/10 00:22:12;;;;;;;13.60;12.05;;;;;;;;;;5033088;28;20053;-82
2022/07/10 00:24:38;;;;;;;11.90;10.90;;;;;;;;;;5033343;28;20033;-81
2022/07/10 00:27:04;;;;;;;13.13;11.93;;;;;;;;;;5033094;28;20381;-81
2022/07/10 00:29:30;;;;;;;11.90;10.75;;;;;;;;;;5033212;28;20048;-78
2022/07/10 00:31:56;;;;;;;11.85;10.50;;;;;;;;;;5033111;28;20025;-80
2022/07/10 00:34:22;;;;;;;10.45;8.90;;;;;;;;;;5033056;28;20431;-80
2022/07/10 00:36:48;;;;;;;11.80;9.00;;;;;;;;;;5032956;28;20041;-80
2022/07/10 00:39:14;;;;;;;10.45;9.45;;;;;;;;;;5032678;28;20384;-81
2022/07/10 00:41:41;;;;;;;10.55;9.48;;;;;;;;;;5033143;28;20022;-80
2022/07/10 00:44:07;;;;;;;10.10;9.10;;;;;;;;;;5033166;28;20029;-81
2022/07/10 00:46:33;;;;;;;9.32;8.50;;;;;;;;;;5032843;28;20026;-82
2022/07/10 00:48:59;;;;;;;11.13;9.30;;;;;;;;;;5032874;28;20037;-80
2022/07/10 00:51:26;;;;;;;9.45;8.55;;;;;;;;;;5032650;28;20465;-79
2022/07/10 00:53:52;;;;;;;10.07;7.80;;;;;;;;;;5032705;28;20427;-79
2022/07/10 00:56:20;;;;;;;8.45;7.65;;;;;;;;;;5032318;28;20472;-79
2022/07/10 00:58:46;;;;;;;8.20;7.60;;;;;;;;;;5032557;28;20080;-78
2022/07/10 01:01:13;;;;;;;8.77;7.97;;;;;;;;;;5032582;28;20469;-79
2022/07/10 01:03:39;;;;;;;8.07;6.93;;;;;;;;;;5032496;28;20029;-79
2022/07/10 01:06:05;;;;;;;8.00;7.20;;;;;;;;;;5031589;28;20045;-79
2022/07/10 01:08:31;;;;;;;8.80;7.90;;;;;;;;;;5032318;28;20061;-78
2022/07/10 01:10:57;;;;;;;9.32;8.25;;;;;;;;;;5032387;28;20029;-80
2022/07/10 01:13:24;;;;;;;8.68;7.80;;;;;;;;;;5032228;28;20033;-77
2022/07/10 01:15:50;;;;;;;8.50;7.68;;;;;;;;;;5032328;28;20096;-78
2022/07/10 01:18:16;;;;;;;9.75;8.65;;;;;;;;;;5032336;28;20053;-79
2022/07/10 01:20:42;;;;;;;9.35;8.35;;;;;;;;;;5032234;28;20092;-78
2022/07/10 01:23:09;;;;;;;8.50;7.70;;;;;;;;;;5032292;28;20029;-79
2022/07/10 01:25:35;;;;;;;8.35;7.60;;;;;;;;;;5032116;28;20043;-80
2022/07/10 01:28:01;;;;;;;8.68;7.55;;;;;;;;;;5032281;28;20130;-78
2022/07/10 01:30:27;;;;;;;8.20;7.50;;;;;;;;;;5032095;28;20037;-79
2022/07/10 01:32:53;;;;;;;8.27;7.47;;;;;;;;;;5032214;28;20397;-81
2022/07/10 01:35:20;;;;;;;8.80;8.00;;;;;;;;;;5032272;28;20538;-77
2022/07/10 01:37:46;;;;;;;7.95;7.25;;;;;;;;;;5031961;28;20022;-80
2022/07/10 01:40:12;;;;;;;9.90;7.90;;;;;;;;;;5032291;28;20120;-79
2022/07/10 01:42:39;;;;;;;8.23;7.35;;;;;;;;;;5032008;28;20056;-79
2022/07/10 01:45:09;;;;;;;9.10;8.18;;;;;;;;;;5032098;28;20033;-79
2022/07/10 01:47:35;;;;;;;8.95;7.10;;;;;;;;;;5031902;28;20501;-80
2022/07/10 01:50:01;;;;;;;7.72;7.03;;;;;;;;;;5031912;28;20538;-78
2022/07/10 01:52:27;;;;;;;7.95;7.15;;;;;;;;;;5031996;28;20376;-80
2022/07/10 01:54:53;;;;;;;8.13;7.28;;;;;;;;;;5031871;28;20026;-78
2022/07/10 01:57:19;;;;;;;8.25;7.45;;;;;;;;;;5032035;28;20045;-78
2022/07/10 01:59:46;;;;;;;7.20;6.55;;;;;;;;;;5031796;28;20380;-81
2022/07/10 02:02:12;;;;;;;7.38;6.78;;;;;;;;;;5032076;28;20107;-82
2022/07/10 02:04:41;;;;;;;8.75;7.93;;;;;;;;;;5031681;28;20024;-81
2022/07/10 02:07:15;;;;;;;7.93;6.82;;;;;;;;;;5031949;28;20493;-83
2022/07/10 02:09:41;;;;;;;7.88;6.47;;;;;;;;;;5013951;28;20029;-79
2022/07/10 02:12:11;;;;;;;7.78;6.93;;;;;;;;;;5031825;28;20071;-78
2022/07/10 02:14:37;;;;;;;7.72;6.93;;;;;;;;;;5031703;28;20543;-80
2022/07/10 02:17:04;;;;;;;6.85;6.20;;;;;;;;;;5033408;28;20084;-80
2022/07/10 02:19:30;;;;;;;8.02;7.22;;;;;;;;;;5035196;28;20116;-79
2022/07/10 02:21:56;;;;;;;8.10;7.00;;;;;;;;;;5035588;28;20044;-79
2022/07/10 02:24:22;;;;;;;8.15;7.35;;;;;;;;;;5035604;28;20033;-79
2022/07/10 02:26:49;;;;;;;8.18;7.25;;;;;;;;;;5035345;28;20033;-79
2022/07/10 02:29:15;;;;;;;7.78;7.03;;;;;;;;;;5035555;28;20033;-78
2022/07/10 02:31:41;;;;;;;7.72;6.90;;;;;;;;;;5035300;28;20033;-79
2022/07/10 02:34:08;;;;;;;8.35;7.30;;;;;;;;;;5035260;28;20082;-78
2022/07/10 02:36:34;;;;;;;8.80;7.80;;;;;;;;;;5035174;28;20026;-79
2022/07/10 02:39:00;;;;;;;7.82;6.95;;;;;;;;;;5035331;28;20496;-79
2022/07/10 02:41:27;;;;;;;7.90;7.20;;;;;;;;;;5035243;28;20026;-78
2022/07/10 02:43:53;;;;;;;8.43;7.57;;;;;;;;;;5035091;28;20033;-78
2022/07/10 02:46:19;;;;;;;11.32;7.40;;;;;;;;;;5034948;28;20030;-78
2022/07/10 02:48:45;;;;;;;9.18;8.32;;;;;;;;;;5034839;28;20029;-78
2022/07/10 02:51:11;;;;;;;8.10;7.30;;;;;;;;;;5035010;28;20029;-78
2022/07/10 02:53:37;;;;;;;9.52;8.35;;;;;;;;;;5034805;28;20057;-78
2022/07/10 02:56:03;;;;;;;9.07;8.18;;;;;;;;;;5035002;28;20026;-78
2022/07/10 02:58:29;;;;;;;11.45;8.13;;;;;;;;;;5035015;28;20045;-78
2022/07/10 03:00:55;;;;;;;9.75;8.73;;;;;;;;;;5034556;28;20025;-78
2022/07/10 03:03:22;;;;;;;8.73;7.97;;;;;;;;;;5034942;28;20040;-79
2022/07/10 03:05:48;;;;;;;8.68;7.88;;;;;;;;;;5034429;28;20036;-78
2022/07/10 03:08:14;;;;;;;9.82;8.73;;;;;;;;;;5034746;28;20091;-78
2022/07/10 03:10:41;;;;;;;8.40;7.55;;;;;;;;;;5034605;28;20029;-79
2022/07/10 03:13:07;;;;;;;8.35;7.50;;;;;;;;;;5034523;28;20036;-79
2022/07/10 03:15:33;;;;;;;8.48;7.60;;;;;;;;;;5034653;28;20025;-79
2022/07/10 03:17:59;;;;;;;8.95;7.93;;;;;;;;;;5034297;28;20388;-79
2022/07/10 03:20:26;;;;;;;8.63;7.82;;;;;;;;;;5034571;28;20135;-78
2022/07/10 03:22:52;;;;;;;8.07;7.22;;;;;;;;;;5034349;28;20108;-79
2022/07/10 03:25:18;;;;;;;8.25;7.38;;;;;;;;;;5034459;28;20033;-79
2022/07/10 03:27:44;;;;;;;6.47;5.82;;;;;;;;;;5033910;28;20033;-78
2022/07/10 03:30:10;;;;;;;6.70;6.05;;;;;;;;;;5033822;28;20029;-78
2022/07/10 03:32:37;;;;;;;8.23;7.43;;;;;;;;;;5034421;28;20036;-79
2022/07/10 03:35:03;;;;;;;7.75;7.05;;;;;;;;;;5034134;28;20048;-79
2022/07/10 03:37:29;;;;;;;8.05;7.25;;;;;;;;;;5034374;28;20064;-79
2022/07/10 03:39:55;;;;;;;7.05;6.38;;;;;;;;;;5034132;28;20545;-79
2022/07/10 03:42:21;;;;;;;6.45;5.85;;;;;;;;;;5034246;28;20392;-79
2022/07/10 03:44:48;;;;;;;7.60;6.57;;;;;;;;;;5034054;28;20100;-78
2022/07/10 03:47:14;;;;;;;6.90;6.03;;;;;;;;;;5033991;28;20383;-79
2022/07/10 03:49:41;;;;;;;7.25;6.43;;;;;;;;;;5034086;28;20092;-79
2022/07/10 03:52:07;;;;;;;7.07;6.38;;;;;;;;;;5033757;28;20587;-79
2022/07/10 03:54:33;;;;;;;7.78;5.68;;;;;;;;;;5034047;28;20048;-78
2022/07/10 03:59:44;;;;;;;6.40;5.70;;;;;;;;;;5033845;28;20086;-79
2022/07/10 04:02:11;;;;;;;6.28;5.57;;;;;;;;;;5033833;28;20021;-80
2022/07/10 04:04:37;;;;;;;5.78;5.28;;;;;;;;;;5016123;28;20091;-79
2022/07/10 04:07:04;;;;;;;5.97;5.45;;;;;;;;;;5033610;28;20448;-80
2022/07/10 04:09:30;;;;;;;6.55;5.00;;;;;;;;;;5033934;28;20025;-80
2022/07/10 04:11:56;;;;;;;8.45;5.45;;;;;;;;;;5033444;28;20029;-80
2022/07/10 04:14:22;;;;;;;18.95;17.17;;;;;;;;;;5033578;28;20425;-79
2022/07/10 04:16:49;;;;;;;18.55;16.83;;;;;;;;;;5033439;28;20152;-79
2022/07/10 04:19:15;;;;;;;9.23;7.30;;;;;;;;;;5033137;28;20507;-80
2022/07/10 04:21:41;;;;;;;9.48;8.57;;;;;;;;;;5033543;28;20507;-78
2022/07/10 04:24:07;;;;;;;15.20;13.70;;;;;;;;;;5033052;28;20026;-80
2022/07/10 04:26:34;;;;;;;14.27;12.80;;;;;;;;;;5033219;28;20068;-78
2022/07/10 04:29:00;;;;;;;6.25;4.10;;;;;;;;;;5032998;28;20060;-80
2022/07/10 04:31:26;;;;;;;5.25;4.38;;;;;;;;;;5033195;28;20039;-79
2022/07/10 04:33:52;;;;;;;5.47;4.10;;;;;;;;;;5033060;28;20028;-78
2022/07/10 04:36:18;;;;;;;7.05;4.13;;;;;;;;;;5032865;28;20108;-79
2022/07/10 04:38:45;;;;;;;6.40;4.22;;;;;;;;;;5033045;28;20033;-79
2022/07/10 04:41:11;;;;;;;5.53;3.90;;;;;;;;;;5032663;28;20033;-78
2022/07/10 04:43:37;;;;;;;4.60;3.42;;;;;;;;;;5032934;28;20128;-78
2022/07/10 04:46:03;;;;;;;4.22;3.75;;;;;;;;;;5032664;28;20507;-78
2022/07/10 04:48:29;;;;;;;3.85;3.55;;;;;;;;;;5032868;28;20026;-81
2022/07/10 04:50:55;;;;;;;6.00;3.88;;;;;;;;;;5032836;28;20030;-78
2022/07/10 04:53:21;;;;;;;4.43;4.00;;;;;;;;;;5032449;28;20025;-79
2022/07/10 04:55:47;;;;;;;5.32;4.05;;;;;;;;;;5032628;28;20036;-78
2022/07/10 04:58:14;;;;;;;4.97;3.65;;;;;;;;;;5032455;28;20385;-79
2022/07/10 05:00:40;;;;;;;10.23;4.30;;;;;;;;;;5032688;28;20060;-80
2022/07/10 05:03:06;;;;;;;4.55;4.10;;;;;;;;;;5032553;28;20025;-81
2022/07/10 05:05:32;;;;;;;4.88;3.90;;;;;;;;;;5032580;28;20042;-81
2022/07/10 05:07:58;;;;;;;5.05;3.65;;;;;;;;;;5014726;28;20064;-79
2022/07/10 05:10:25;;;;;;;6.13;3.28;;;;;;;;;;5032347;28;20029;-81
2022/07/10 05:12:51;;;;;;;7.72;4.32;;;;;;;;;;5032480;28;20022;-79
2022/07/10 05:15:17;;;;;;;4.50;3.90;;;;;;;;;;5032345;28;20029;-80
2022/07/10 05:17:43;;;;;;;5.20;3.65;;;;;;;;;;5032460;28;20075;-78
2022/07/10 05:20:10;;;;;;;5.13;3.25;;;;;;;;;;5032100;28;20052;-78
2022/07/10 05:22:36;;;;;;;6.05;3.75;;;;;;;;;;5032091;28;20034;-79
2022/07/10 05:25:02;;;;;;;5.75;3.53;;;;;;;;;;5014587;28;20055;-79
2022/07/10 05:27:28;;;;;;;4.55;3.03;;;;;;;;;;5031920;28;20095;-80
2022/07/10 05:29:54;;;;;;;4.22;3.45;;;;;;;;;;5032386;28;20484;-81
2022/07/10 05:32:21;;;;;;;5.47;3.00;;;;;;;;;;5032088;28;20030;-81
2022/07/10 05:34:47;;;;;;;6.10;3.38;;;;;;;;;;5032254;28;20475;-80
2022/07/10 05:37:13;;;;;;;3.97;2.70;;;;;;;;;;5032281;28;20484;-80
2022/07/10 05:39:39;;;;;;;5.68;2.55;;;;;;;;;;5032013;28;20026;-78
2022/07/10 05:42:05;;;;;;;5.25;2.88;;;;;;;;;;5032182;28;20076;-81
2022/07/10 05:44:31;;;;;;;5.82;2.47;;;;;;;;;;5031785;28;20097;-82
2022/07/10 05:46:58;;;;;;;4.38;2.38;;;;;;;;;;5032050;28;20403;-77
2022/07/10 05:49:24;;;;;;;5.95;2.25;;;;;;;;;;5032021;28;20472;-78
2022/07/10 05:51:50;;;;;;;3.88;2.50;;;;;;;;;;5033202;28;20052;-78
2022/07/10 05:54:16;;;;;;;4.38;2.58;;;;;;;;;;5036190;28;20021;-81
2022/07/10 05:56:42;;;;;;;6.43;2.63;;;;;;;;;;5035757;28;20017;-78
2022/07/10 05:59:08;;;;;;;5.63;2.72;;;;;;;;;;5018533;28;20025;-81
2022/07/10 06:01:34;;;;;;;4.13;2.55;;;;;;;;;;5017957;28;20025;-79
2022/07/10 06:04:01;;;;;;;6.60;3.72;;;;;;;;;;5035950;28;20389;-80
2022/07/10 06:06:27;;;;;;;4.22;3.08;;;;;;;;;;5018119;28;20454;-79
2022/07/10 06:08:53;;;;;;;3.72;2.53;;;;;;;;;;5035611;28;20095;-80
2022/07/10 06:11:19;;;;;;;3.42;2.60;;;;;;;;;;5035714;28;20432;-77
2022/07/10 06:13:45;;;;;;;3.63;2.50;;;;;;;;;;5035505;28;20091;-81
2022/07/10 06:16:11;;;;;;;7.60;3.45;;;;;;;;;;5035855;28;20037;-78
2022/07/10 06:18:38;;;;;;;4.88;3.30;;;;;;;;;;5035386;28;20037;-80
2022/07/10 06:21:04;;;;;;;4.95;2.60;;;;;;;;;;5035317;28;20492;-80
2022/07/10 06:23:30;;;;;;;3.65;2.22;;;;;;;;;;5035386;28;20030;-80
2022/07/10 06:25:56;;;;;;;2.80;2.10;;;;;;;;;;5035299;28;20042;-79
2022/07/10 06:28:22;;;;;;;2.55;2.35;;;;;;;;;;5017771;28;20389;-78
2022/07/10 06:30:48;;;;;;;3.55;2.50;;;;;;;;;;5035111;28;20041;-79
2022/07/10 06:33:14;;;;;;;2.90;2.15;;;;;;;;;;5035489;28;20029;-81
2022/07/10 06:35:40;;;;;;;4.78;2.67;;;;;;;;;;5035056;28;20025;-81
2022/07/10 06:38:07;;;;;;;4.40;2.25;;;;;;;;;;5035347;28;20037;-79
2022/07/10 06:40:36;;;;;;;5.57;2.35;;;;;;;;;;5035504;28;20420;-78
2022/07/10 06:43:02;;;;;;;5.85;2.88;;;;;;;;;;5035081;28;20032;-79
2022/07/10 06:45:28;;;;;;;3.85;2.65;;;;;;;;;;5034973;28;20369;-80
2022/07/10 06:48:01;;;;;;;6.25;3.88;;;;;;;;;;5034940;28;20087;-80
2022/07/10 06:50:33;;;;;;;3.90;2.80;;;;;;;;;;5017236;28;20610;-81
2022/07/10 06:52:59;;;;;;;3.85;2.80;;;;;;;;;;5035114;28;20033;-81
2022/07/10 06:55:26;;;;;;;3.40;2.30;;;;;;;;;;5034835;28;20476;-78
2022/07/10 06:57:52;;;;;;;3.45;2.15;;;;;;;;;;5034812;28;20021;-80
2022/07/10 07:00:19;;;;;;;3.05;2.25;;;;;;;;;;5034894;28;20469;-77
2022/07/10 07:02:45;;;;;;;6.03;2.63;;;;;;;;;;5034402;28;20366;-81
2022/07/10 07:05:11;;;;;;;4.18;2.28;;;;;;;;;;5034755;28;20104;-78
2022/07/10 07:07:37;;;;;;;3.97;3.03;;;;;;;;;;5034561;28;20091;-79
2022/07/10 07:10:04;;;;;;;4.32;2.38;;;;;;;;;;5034820;28;20389;-78
2022/07/10 07:12:30;;;;;;;2.50;2.15;;;;;;;;;;5034683;28;20053;-80
2022/07/10 07:14:56;;;;;;;4.95;2.97;;;;;;;;;;5016692;28;20487;-79
2022/07/10 07:17:24;;;;;;;3.53;3.10;;;;;;;;;;5034601;28;20100;-78
2022/07/10 07:25:21;;;;;;;5.43;2.50;;;;;;;;;;5034166;28;20044;-79
2022/07/10 07:27:47;;;;;;;5.53;2.33;;;;;;;;;;5034505;28;20045;-80
2022/07/10 07:30:15;;;;;;;5.40;2.55;;;;;;;;;;5034220;28;20030;-79
2022/07/10 07:32:41;;;;;;;4.18;2.40;;;;;;;;;;5034311;28;20103;-80
2022/07/10 07:35:08;;;;;;;2.90;2.20;;;;;;;;;;5034175;28;20033;-79
2022/07/10 07:37:38;;;;;;;3.28;2.13;;;;;;;;;;5034049;28;20050;-79
2022/07/10 07:40:05;;;;;;;4.45;2.13;;;;;;;;;;5034027;28;20051;-81
2022/07/10 07:42:31;;;;;;;2.47;2.22;;;;;;;;;;5033897;28;20022;-80
2022/07/10 07:44:58;;;;;;;4.47;2.15;;;;;;;;;;5034097;28;20100;-79
2022/07/10 07:47:24;;;;;;;2.47;1.83;;;;;;;;;;5015993;28;20040;-80
2022/07/10 07:49:50;;;;;;;5.47;2.10;;;;;;;;;;5033973;28;20017;-79
2022/07/10 07:52:16;;;;;;;3.38;1.92;;;;;;;;;;5033828;28;20029;-79
2022/07/10 07:54:42;;;;;;;3.75;2.28;;;;;;;;;;5033808;28;20488;-81
2022/07/10 07:57:08;;;;;;;2.75;2.20;;;;;;;;;;5016039;28;20026;-80
2022/07/10 07:59:35;;;;;;;3.05;1.73;;;;;;;;;;5033690;28;20104;-80
2022/07/10 08:02:01;;;;;;;2.45;2.00;;;;;;;;;;5033704;28;20108;-79
2022/07/10 08:04:27;;;;;;;2.83;2.08;;;;;;;;;;5033384;28;20026;-78
2022/07/10 08:06:53;;;;;;;2.25;2.03;;;;;;;;;;5033618;28;20515;-80
2022/07/10 08:09:20;;;;;;;5.15;1.92;;;;;;;;;;5015559;28;20040;-77
2022/07/10 08:11:46;;;;;;;2.05;1.83;;;;;;;;;;5033634;28;20102;-79
2022/07/10 08:14:14;;;;;;;6.80;2.55;;;;;;;;;;5033024;28;20116;-78
2022/07/10 08:16:40;;;;;;;7.95;6.05;;;;;;;;;;5033267;28;20025;-80
2022/07/10 08:19:06;;;;;;;2.78;2.13;;;;;;;;;;5033446;28;20029;-79
2022/07/10 08:21:33;;;;;;;3.90;1.90;;;;;;;;;;5032995;28;20062;-80
2022/07/10 08:24:00;;;;;;;4.53;1.98;;;;;;;;;;5033393;28;20030;-80
2022/07/10 08:26:26;;;;;;;2.35;1.88;;;;;;;;;;5032877;28;20057;-77
2022/07/10 08:28:52;;;;;;;2.33;2.10;;;;;;;;;;5033196;28;20029;-79
2022/07/10 08:31:18;;;;;;;2.53;1.88;;;;;;;;;;5032955;28;20025;-77
2022/07/10 08:33:45;;;;;;;2.78;1.98;;;;;;;;;;5033139;28;20091;-80
2022/07/10 08:36:11;;;;;;;2.60;2.03;;;;;;;;;;5033122;28;20057;-79
2022/07/10 08:38:37;;;;;;;4.22;2.13;;;;;;;;;;5032853;28;20035;-80
2022/07/10 08:41:05;;;;;;;6.00;2.72;;;;;;;;;;5033087;28;20032;-80
2022/07/10 08:43:32;;;;;;;3.65;2.10;;;;;;;;;;5032646;28;20025;-79
2022/07/10 08:45:59;;;;;;;3.17;2.78;;;;;;;;;;5032807;28;20033;-79
2022/07/10 08:48:25;;;;;;;4.70;2.30;;;;;;;;;;5032625;28;20065;-79
2022/07/10 08:50:54;;;;;;;8.30;2.38;;;;;;;;;;5032697;28;20067;-77
2022/07/10 08:53:31;;;;;;;3.45;2.00;;;;;;;;;;5032670;28;20029;-79
2022/07/10 08:56:00;;;;;;;3.45;1.73;;;;;;;;;;5032895;28;20465;-79
2022/07/10 08:58:31;;;;;;;4.78;2.08;;;;;;;;;;5032310;28;20424;-78
2022/07/10 09:00:57;;;;;;;1.52;1.42;;;;;;;;;;5032682;28;20099;-80
2022/07/10 09:03:23;;;;;;;2.88;1.73;;;;;;;;;;5032395;28;20477;-79
2022/07/10 09:05:51;;;;;;;3.25;1.95;;;;;;;;;;5032502;28;20044;-78
2022/07/10 09:08:37;;;;;;;2.63;2.05;;;;;;;;;;5032441;28;20041;-81
2022/07/10 09:11:30;;;;;;;2.10;1.90;;;;;;;;;;5032344;28;20036;-77
2022/07/10 09:14:14;;;;;;;3.38;2.67;;;;;;;;;;5028070;28;20488;-77
2022/07/10 09:16:47;;;;;;;2.08;1.40;;;;;;;;;;5032248;28;20116;-78
2022/07/10 09:19:26;;;;;;;3.05;2.28;;;;;;;;;;5032220;28;20080;-79
2022/07/10 09:21:54;;;;;;;4.40;2.42;;;;;;;;;;5014696;28;20511;-83
2022/07/10 09:24:20;;;;;;;5.22;2.60;;;;;;;;;;5032000;28;20026;-77
2022/07/10 09:26:55;;;;;;;2.60;1.98;;;;;;;;;;5031409;28;20392;-78
2022/07/10 09:29:21;;;;;;;4.90;2.50;;;;;;;;;;5032149;28;20420;-76
2022/07/10 09:32:06;;;;;;;3.30;1.92;;;;;;;;;;5032184;28;20034;-80
2022/07/10 09:34:39;;;;;;;8.27;4.68;;;;;;;;;;5032270;28;20029;-78
2022/07/10 09:37:24;;;;;;;9.65;7.43;;;;;;;;;;5032027;28;20026;-78
2022/07/10 09:39:54;;;;;;;5.13;3.33;;;;;;;;;;5031832;28;20026;-78
2022/07/10 09:42:26;;;;;;;2.95;2.20;;;;;;;;;;5031982;28;20052;-79
2022/07/10 09:44:52;;;;;;;2.65;2.08;;;;;;;;;;5032082;28;20021;-79
2022/07/10 09:47:37;;;;;;;3.70;2.50;;;;;;;;;;5031895;28;20033;-77
2022/07/10 09:50:04;;;;;;;3.33;1.80;;;;;;;;;;5031997;28;20034;-77
2022/07/10 09:52:30;;;;;;;2.50;2.00;;;;;;;;;;5031651;28;20387;-80
2022/07/10 09:54:59;;;;;;;3.67;2.30;;;;;;;;;;5031858;28;20036;-79
2022/07/10 09:57:28;;;;;;;5.45;2.05;;;;;;;;;;5031707;28;20030;-78
2022/07/10 09:59:56;;;;;;;2.58;1.98;;;;;;;;;;5031852;28;20476;-80
2022/07/10 10:02:22;;;;;;;2.45;2.00;;;;;;;;;;5031676;28;20458;-80
2022/07/10 10:04:49;;;;;;;4.40;2.47;;;;;;;;;;5031803;28;20033;-81
2022/07/10 10:07:18;;;;;;;5.35;2.08;;;;;;;;;;5014006;28;20491;-83
2022/07/10 10:09:48;;;;;;;5.60;2.75;;;;;;;;;;5031908;28;20118;-77
2022/07/10 10:12:17;;;;;;;2.97;2.22;;;;;;;;;;5031539;28;20113;-77
2022/07/10 10:14:44;;;;;;;3.38;1.90;;;;;;;;;;5032022;28;20025;-81
2022/07/10 10:17:10;;;;;;;3.28;2.53;;;;;;;;;;5031633;28;20079;-77
2022/07/10 10:22:23;;;;;;;2.55;1.80;;;;;;;;;;5032163;28;20091;-82
2022/07/10 10:24:49;;;;;;;2.13;1.60;;;;;;;;;;5013506;28;20396;-79
2022/07/10 10:27:16;;;;;;;3.72;2.25;;;;;;;;;;5031665;28;20041;-79
2022/07/10 10:29:42;;;;;;;2.75;2.05;;;;;;;;;;5031788;28;20022;-81
2022/07/10 10:32:09;;;;;;;2.72;1.77;;;;;;;;;;5031587;28;20365;-79
2022/07/10 10:34:39;;;;;;;3.28;1.83;;;;;;;;;;5031716;28;20459;-77
2022/07/10 10:37:07;;;;;;;2.97;1.83;;;;;;;;;;5031470;28;20075;-79
2022/07/10 10:39:53;;;;;;;4.90;4.40;;;;;;;;;;5035243;28;20040;-81
2022/07/10 10:42:37;;;;;;;8.05;2.20;;;;;;;;;;5035437;28;20025;-85
2022/07/10 10:45:22;;;;;;;3.13;1.90;;;;;;;;;;5035113;28;20033;-79
2022/07/10 10:48:10;;;;;;;4.10;2.75;;;;;;;;;;5035018;28;20100;-81
2022/07/10 10:50:38;;;;;;;2.67;2.10;;;;;;;;;;5035112;28;20025;-80
2022/07/10 10:53:05;;;;;;;2.53;1.73;;;;;;;;;;5017336;28;20481;-83
2022/07/10 10:55:31;;;;;;;3.70;2.40;;;;;;;;;;5035190;28;20040;-80
2022/07/10 10:58:17;;;;;;;3.63;2.03;;;;;;;;;;5034787;28;20064;-80
2022/07/10 11:00:44;;;;;;;3.70;2.00;;;;;;;;;;5034731;28;20155;-80
2022/07/10 11:03:15;;;;;;;1.98;1.70;;;;;;;;;;5034872;28;20469;-78
2022/07/10 11:05:41;;;;;;;2.40;1.52;;;;;;;;;;5034558;28;20037;-78
2022/07/10 11:08:08;;;;;;;2.90;2.17;;;;;;;;;;5034896;28;20055;-80
2022/07/10 11:10:38;;;;;;;2.85;2.10;;;;;;;;;;5034586;28;20100;-80
2022/07/10 11:13:11;;;;;;;3.80;2.10;;;;;;;;;;5034796;28;20021;-80
2022/07/10 11:15:42;;;;;;;3.30;1.98;;;;;;;;;;5034489;28;20036;-78
2022/07/10 11:18:08;;;;;;;3.08;1.95;;;;;;;;;;5034591;28;20030;-79
2022/07/10 11:20:38;;;;;;;2.50;1.80;;;;;;;;;;5034136;28;20547;-78
2022/07/10 11:23:23;;;;;;;3.80;1.83;;;;;;;;;;5034432;28;20025;-85
2022/07/10 11:26:08;;;;;;;3.35;1.65;;;;;;;;;;5034414;28;20036;-77
2022/07/10 11:28:53;;;;;;;3.55;1.80;;;;;;;;;;5034543;28;20024;-83
2022/07/10 11:31:20;;;;;;;2.03;1.77;;;;;;;;;;5016607;28;20120;-80
2022/07/10 11:33:48;;;;;;;3.50;2.10;;;;;;;;;;5016399;28;20032;-82
2022/07/10 11:36:14;;;;;;;2.58;1.98;;;;;;;;;;5034457;28;20112;-80
2022/07/10 11:38:42;;;;;;;2.45;1.65;;;;;;;;;;5034082;28;20152;-81
2022/07/10 11:41:14;;;;;;;2.15;1.48;;;;;;;;;;5034192;28;20037;-79
2022/07/10 11:43:54;;;;;;;3.35;1.67;;;;;;;;;;5016242;28;20432;-81
2022/07/10 11:46:21;;;;;;;3.08;1.83;;;;;;;;;;5033980;28;20033;-82
2022/07/10 11:48:49;;;;;;;1.77;1.60;;;;;;;;;;5015946;28;20033;-79
2022/07/10 11:51:18;;;;;;;2.90;2.00;;;;;;;;;;5033716;28;20036;-79
2022/07/10 11:53:58;;;;;;;2.42;1.27;;;;;;;;;;5034057;28;20030;-81
2022/07/10 11:56:25;;;;;;;2.35;1.85;;;;;;;;;;5033767;28;20035;-79
2022/07/10 11:59:10;;;;;;;2.70;1.52;;;;;;;;;;5033942;28;20452;-82
2022/07/10 12:01:41;;;;;;;2.83;1.73;;;;;;;;;;5033903;28;20109;-79
2022/07/10 12:04:09;;;;;;;3.50;1.67;;;;;;;;;;5033312;28;20037;-81
2022/07/10 12:06:36;;;;;;;2.00;1.75;;;;;;;;;;5033725;28;20057;-78
2022/07/10 12:09:06;;;;;;;4.00;2.58;;;;;;;;;;5033348;28;20071;-79
2022/07/10 12:11:32;;;;;;;3.28;1.60;;;;;;;;;;5015914;28;20026;-81
2022/07/10 12:14:19;;;;;;;2.38;1.67;;;;;;;;;;5033251;28;20101;-80
2022/07/10 12:16:52;;;;;;;2.75;1.42;;;;;;;;;;5015393;28;20484;-79
2022/07/10 12:19:20;;;;;;;2.22;1.20;;;;;;;;;;5033361;28;20033;-81
2022/07/10 12:21:47;;;;;;;2.80;1.40;;;;;;;;;;5015552;28;20432;-78
2022/07/10 12:24:15;;;;;;;2.13;1.50;;;;;;;;;;5033399;28;20026;-80
2022/07/10 12:26:42;;;;;;;3.03;2.78;;;;;;;;;;5033276;28;20061;-79
2022/07/10 12:29:12;;;;;;;2.40;1.95;;;;;;;;;;5033141;28;20397;-82
2022/07/10 12:31:38;;;;;;;4.85;1.95;;;;;;;;;;5033074;28;20029;-80
2022/07/10 12:34:06;;;;;;;4.10;1.20;;;;;;;;;;5032762;28;20030;-81
2022/07/10 12:36:43;;;;;;;2.03;1.38;;;;;;;;;;5033238;28;20021;-79
2022/07/10 12:39:09;;;;;;;6.93;6.03;;;;;;;;;;5032878;28;20076;-80
2022/07/10 12:41:36;;;;;;;3.13;1.15;;;;;;;;;;5032852;28;20076;-81
2022/07/10 12:44:02;;;;;;;3.90;1.50;;;;;;;;;;5033044;28;20456;-82
2022/07/10 12:46:28;;;;;;;2.33;1.58;;;;;;;;;;5032669;28;20472;-78
2022/07/10 12:49:05;;;;;;;1.92;1.25;;;;;;;;;;5015059;28;20026;-79
2022/07/10 12:51:34;;;;;;;3.88;1.38;;;;;;;;;;5015046;28;20029;-79
2022/07/10 12:54:01;;;;;;;2.67;1.00;;;;;;;;;;5032866;28;20032;-81
2022/07/10 12:56:27;;;;;;;1.73;0.82;;;;;;;;;;5032597;28;20025;-80
2022/07/10 12:58:53;;;;;;;1.80;1.10;;;;;;;;;;5032688;28;20160;-80
2022/07/10 13:01:19;;;;;;;1.95;1.10;;;;;;;;;;5032332;28;20079;-79
2022/07/10 13:03:45;;;;;;;2.55;1.00;;;;;;;;;;5032816;28;20026;-83
2022/07/10 13:06:30;;;;;;;2.20;1.13;;;;;;;;;;5032278;28;20060;-79
2022/07/10 13:08:57;;;;;;;1.30;1.00;;;;;;;;;;5032417;28;20507;-81
2022/07/10 13:11:23;;;;;;;2.60;1.10;;;;;;;;;;5032487;28;20029;-81
2022/07/10 13:13:49;;;;;;;2.28;1.08;;;;;;;;;;5032608;28;20017;-82
2022/07/10 13:16:15;;;;;;;1.38;1.10;;;;;;;;;;5032245;28;20079;-82
2022/07/10 13:18:45;;;;;;;1.25;0.88;;;;;;;;;;5032273;28;20030;-80
2022/07/10 13:21:12;;;;;;;4.07;1.02;;;;;;;;;;5032086;28;20052;-81
2022/07/10 13:23:38;;;;;;;3.80;1.30;;;;;;;;;;5032326;28;20037;-79
2022/07/10 13:26:06;;;;;;;2.33;1.13;;;;;;;;;;5031974;28;20112;-81
2022/07/10 13:28:33;;;;;;;1.65;0.80;;;;;;;;;;5032445;28;20040;-80
2022/07/10 13:30:59;;;;;;;1.73;1.00;;;;;;;;;;5032021;28;20095;-79
2022/07/10 13:33:27;;;;;;;2.55;1.20;;;;;;;;;;5031900;28;20430;-81
2022/07/10 13:35:54;;;;;;;2.00;1.15;;;;;;;;;;5032231;28;20105;-79
2022/07/10 13:38:20;;;;;;;1.75;1.00;;;;;;;;;;5031991;28;20021;-77
2022/07/10 13:40:47;;;;;;;2.28;1.10;;;;;;;;;;5032056;28;20045;-80
2022/07/10 13:43:13;;;;;;;2.65;1.20;;;;;;;;;;5031448;28;20040;-80
2022/07/10 13:45:42;;;;;;;1.75;1.50;;;;;;;;;;5032002;28;20029;-78
2022/07/10 13:48:09;;;;;;;2.78;1.08;;;;;;;;;;5031653;28;20029;-79
2022/07/10 13:50:37;;;;;;;3.42;1.20;;;;;;;;;;5032073;28;20037;-80
2022/07/10 13:53:04;;;;;;;1.30;0.93;;;;;;;;;;5031720;28;20025;-78
2022/07/10 13:55:30;;;;;;;1.55;1.13;;;;;;;;;;5032076;28;20033;-79
2022/07/10 13:57:56;;;;;;;3.78;1.33;;;;;;;;;;5031944;28;20107;-77
2022/07/10 14:00:22;;;;;;;3.30;1.13;;;;;;;;;;5031780;28;20481;-79
2022/07/10 14:02:48;;;;;;;3.05;1.10;;;;;;;;;;5031893;28;20025;-79
2022/07/10 14:05:14;;;;;;;1.77;0.75;;;;;;;;;;5031604;28;20025;-78
2022/07/10 14:07:40;;;;;;;1.13;0.80;;;;;;;;;;5031926;28;20539;-79
2022/07/10 14:10:08;;;;;;;2.90;1.13;;;;;;;;;;5031467;28;20099;-81
2022/07/10 14:12:34;;;;;;;2.30;1.40;;;;;;;;;;5032752;28;20116;-79
2022/07/10 14:15:00;;;;;;;3.97;2.40;;;;;;;;;;5035707;28;20033;-83
2022/07/10 14:17:28;;;;;;;1.83;1.17;;;;;;;;;;5035578;28;20362;-78
2022/07/10 14:19:54;;;;;;;2.72;1.15;;;;;;;;;;5035427;28;20084;-79
2022/07/10 14:22:21;;;;;;;3.60;1.85;;;;;;;;;;5035317;28;20039;-78
2022/07/10 14:24:47;;;;;;;1.10;0.80;;;;;;;;;;5035650;28;20041;-82
2022/07/10 14:27:14;;;;;;;2.35;1.20;;;;;;;;;;5035023;28;20041;-78
2022/07/10 14:29:40;;;;;;;1.45;0.98;;;;;;;;;;5035189;28;20037;-78
2022/07/10 14:32:06;;;;;;;2.35;1.38;;;;;;;;;;5035271;28;20033;-81
2022/07/10 14:34:32;;;;;;;2.75;1.13;;;;;;;;;;5035297;28;20034;-78
2022/07/10 14:36:58;;;;;;;1.75;1.13;;;;;;;;;;5035307;28;20147;-80
2022/07/10 14:39:24;;;;;;;2.00;1.00;;;;;;;;;;5034978;28;20516;-82
2022/07/10 14:41:50;;;;;;;2.97;1.10;;;;;;;;;;5035264;28;20037;-80
2022/07/10 14:44:17;;;;;;;2.58;1.10;;;;;;;;;;5017090;28;20431;-79
2022/07/10 14:46:43;;;;;;;1.80;1.25;;;;;;;;;;5035012;28;20076;-79
2022/07/10 14:49:09;;;;;;;1.98;1.42;;;;;;;;;;5034860;28;20039;-77
2022/07/10 14:51:35;;;;;;;4.18;2.60;;;;;;;;;;5034703;28;20030;-78
2022/07/10 14:54:02;;;;;;;2.10;1.20;;;;;;;;;;5035107;28;20053;-80